createdAt,value
2023-01-26T00:01:19.718Z,83.33
2023-01-26T00:03:46.876Z,87.30
2023-01-26T00:06:16.379Z,83.33
2023-01-26T00:08:44.630Z,83.53
2023-01-26T00:11:13.966Z,92.33
2023-01-26T00:13:41.051Z,81.83
2023-01-26T00:16:13.577Z,88.60
2023-01-26T00:18:40.831Z,82.57
2023-01-26T00:21:13.971Z,85.70
2023-01-26T00:23:40.585Z,89.50
2023-01-26T00:26:08.689Z,95.07
2023-01-26T00:28:35.240Z,96.53
2023-01-26T00:31:06.658Z,97.80
2023-01-26T00:33:33.677Z,93.43
2023-01-26T00:36:00.442Z,101.17
2023-01-26T00:38:27.396Z,83.17
2023-01-26T00:40:53.991Z,92.63
2023-01-26T00:43:20.602Z,99.13
2023-01-26T00:45:47.717Z,96.97
2023-01-26T00:48:14.317Z,98.50
2023-01-26T00:50:40.868Z,97.83
2023-01-26T00:53:07.347Z,91.37
2023-01-26T00:55:33.867Z,91.47
2023-01-26T00:58:01.606Z,88.03
2023-01-26T01:00:28.427Z,87.30
2023-01-26T01:02:56.860Z,86.53
2023-01-26T01:05:24.667Z,71.07
2023-01-26T01:07:51.585Z,70.93
2023-01-26T01:10:18.451Z,74.53
2023-01-26T01:12:45.418Z,76.07
2023-01-26T01:15:12.146Z,67.70
2023-01-26T01:17:38.823Z,75.03
2023-01-26T01:20:06.763Z,72.27
2023-01-26T01:22:34.212Z,77.60
2023-01-26T01:25:00.687Z,76.80
2023-01-26T01:27:27.246Z,64.03
2023-01-26T01:29:54.173Z,76.03
2023-01-26T01:32:21.059Z,70.30
2023-01-26T01:34:48.058Z,73.70
2023-01-26T01:37:15.145Z,72.90
2023-01-26T01:39:41.671Z,68.00
2023-01-26T01:42:08.448Z,70.50
2023-01-26T01:44:36.581Z,73.30
2023-01-26T01:47:05.623Z,67.50
2023-01-26T01:49:36.814Z,71.40
2023-01-26T01:52:18.327Z,71.00
2023-01-26T01:54:51.082Z,82.63
2023-01-26T01:57:28.542Z,70.53
2023-01-26T01:59:59.943Z,66.90
2023-01-26T02:02:26.649Z,68.80
2023-01-26T02:04:54.400Z,71.47
2023-01-26T02:07:21.425Z,75.40
2023-01-26T02:10:06.483Z,90.80
2023-01-26T02:12:33.863Z,70.80
2023-01-26T02:15:01.453Z,75.53
2023-01-26T02:17:27.974Z,78.57
2023-01-26T02:20:16.276Z,76.20
2023-01-26T02:22:52.343Z,74.87
2023-01-26T02:25:40.539Z,80.67
2023-01-26T02:28:07.054Z,75.00
2023-01-26T02:30:33.716Z,68.67
2023-01-26T02:33:00.370Z,87.83
2023-01-26T02:35:26.857Z,69.30
2023-01-26T02:37:53.656Z,78.53
2023-01-26T02:40:38.507Z,78.13
2023-01-26T02:43:05.222Z,71.77
2023-01-26T02:45:32.973Z,71.60
2023-01-26T02:48:04.548Z,78.27
2023-01-26T02:50:31.187Z,64.30
2023-01-26T02:52:57.744Z,79.87
2023-01-26T02:55:28.670Z,70.10
2023-01-26T02:57:56.948Z,71.30
2023-01-26T03:00:28.914Z,69.23
2023-01-26T03:02:57.261Z,68.07
2023-01-26T03:05:23.926Z,74.30
2023-01-26T03:07:50.630Z,67.07
2023-01-26T03:10:18.205Z,68.10
2023-01-26T03:12:45.587Z,74.43
2023-01-26T03:15:31.423Z,63.80
2023-01-26T03:18:24.061Z,74.03
2023-01-26T03:21:09.151Z,65.57
2023-01-26T03:23:54.137Z,85.47
2023-01-26T03:26:39.263Z,75.70
2023-01-26T03:29:05.765Z,69.07
2023-01-26T03:31:32.476Z,69.00
2023-01-26T03:33:58.993Z,73.97
2023-01-26T03:36:25.545Z,71.80
2023-01-26T03:38:51.982Z,73.13
2023-01-26T03:41:37.644Z,69.50
2023-01-26T03:44:22.762Z,66.63
2023-01-26T03:47:07.512Z,69.27
2023-01-26T03:49:52.461Z,77.10
2023-01-26T03:52:37.228Z,66.53
2023-01-26T03:55:22.360Z,78.13
2023-01-26T03:57:49.003Z,71.27
2023-01-26T04:00:15.934Z,75.93
2023-01-26T04:03:00.959Z,69.70
2023-01-26T04:05:45.804Z,80.43
2023-01-26T04:08:24.471Z,70.47
2023-01-26T04:10:54.320Z,81.13
2023-01-26T04:13:41.022Z,70.10
2023-01-26T04:16:27.955Z,79.73
2023-01-26T04:19:13.674Z,71.80
2023-01-26T04:21:40.351Z,90.30
2023-01-26T04:24:16.733Z,81.23
2023-01-26T04:26:43.945Z,81.67
2023-01-26T04:29:12.634Z,73.50
2023-01-26T04:31:40.120Z,72.07
2023-01-26T04:34:10.469Z,77.63
2023-01-26T04:36:36.968Z,76.43
2023-01-26T04:39:03.917Z,81.37
2023-01-26T04:41:31.503Z,81.73
2023-01-26T04:43:58.707Z,83.33
2023-01-26T04:46:25.670Z,77.03
2023-01-26T04:48:52.619Z,84.07
2023-01-26T04:51:20.671Z,73.17
2023-01-26T04:53:48.347Z,74.50
2023-01-26T04:56:20.567Z,78.20
2023-01-26T04:58:47.034Z,92.07
2023-01-26T05:01:13.616Z,78.93
2023-01-26T05:03:40.694Z,75.47
2023-01-26T05:06:07.255Z,79.33
2023-01-26T05:08:33.924Z,69.50
2023-01-26T05:11:00.401Z,80.87
2023-01-26T05:13:26.891Z,76.27
2023-01-26T05:15:53.384Z,83.60
2023-01-26T05:18:19.858Z,79.67
2023-01-26T05:20:46.867Z,73.33
2023-01-26T05:23:13.385Z,71.13
2023-01-26T05:25:39.959Z,77.40
2023-01-26T05:28:06.451Z,78.30
2023-01-26T05:30:33.015Z,76.27
2023-01-26T05:33:04.652Z,75.40
2023-01-26T05:35:31.289Z,79.70
2023-01-26T05:37:57.972Z,74.17
2023-01-26T05:40:26.038Z,77.33
2023-01-26T05:42:53.792Z,73.73
2023-01-26T05:45:20.845Z,74.23
2023-01-26T05:47:48.609Z,76.37
2023-01-26T05:50:16.242Z,76.43
2023-01-26T05:52:44.087Z,74.37
2023-01-26T05:55:10.559Z,77.30
2023-01-26T05:57:37.167Z,88.57
2023-01-26T06:00:07.222Z,73.33
2023-01-26T06:02:33.795Z,89.67
2023-01-26T06:05:00.326Z,98.90
2023-01-26T06:07:26.938Z,99.17
2023-01-26T06:09:53.486Z,94.37
2023-01-26T06:12:21.038Z,98.77
2023-01-26T06:14:47.718Z,99.77
2023-01-26T06:17:15.696Z,93.17
2023-01-26T06:19:42.291Z,104.43
2023-01-26T06:22:10.119Z,94.40
2023-01-26T06:24:36.909Z,95.23
2023-01-26T06:27:06.893Z,100.07
2023-01-26T06:29:33.935Z,96.97
2023-01-26T06:32:00.715Z,97.93
2023-01-26T06:34:27.239Z,98.10
2023-01-26T06:36:53.937Z,112.97
2023-01-26T06:39:20.614Z,111.47
2023-01-26T06:41:47.060Z,83.00
2023-01-26T06:44:13.571Z,87.23
2023-01-26T06:46:40.134Z,92.00
2023-01-26T06:49:06.717Z,85.60
2023-01-26T06:51:39.368Z,93.63
2023-01-26T06:54:05.827Z,82.60
2023-01-26T06:56:32.486Z,90.53
2023-01-26T06:58:58.995Z,85.60
2023-01-26T07:01:26.501Z,78.80
2023-01-26T07:03:55.013Z,77.23
2023-01-26T07:06:25.330Z,87.77
2023-01-26T07:08:51.861Z,93.43
2023-01-26T07:11:20.069Z,85.13
2023-01-26T07:13:46.626Z,76.60
2023-01-26T07:16:15.363Z,74.03
2023-01-26T07:18:42.142Z,74.37
2023-01-26T07:21:13.611Z,88.13
2023-01-26T07:23:40.600Z,78.23
2023-01-26T07:26:07.411Z,82.53
2023-01-26T07:28:39.231Z,84.87
2023-01-26T07:31:07.127Z,86.13
2023-01-26T07:33:34.874Z,82.87
2023-01-26T07:36:01.733Z,81.87
2023-01-26T07:38:29.150Z,85.80
2023-01-26T07:40:56.355Z,71.03
2023-01-26T07:43:23.058Z,72.13
2023-01-26T07:45:51.734Z,83.50
2023-01-26T07:48:23.284Z,74.97
2023-01-26T07:50:50.883Z,75.00
2023-01-26T07:53:22.889Z,87.30
2023-01-26T07:55:49.960Z,84.60
2023-01-26T07:58:18.512Z,78.13
2023-01-26T08:00:47.192Z,81.33
2023-01-26T08:03:14.080Z,81.33
2023-01-26T08:05:40.617Z,72.57
2023-01-26T08:08:07.253Z,74.70
2023-01-26T08:10:33.951Z,69.40
2023-01-26T08:13:01.060Z,73.90
2023-01-26T08:15:28.501Z,74.60
2023-01-26T08:17:55.217Z,73.67
2023-01-26T08:20:22.052Z,74.03
2023-01-26T08:22:48.764Z,75.73
2023-01-26T08:25:15.463Z,69.20
2023-01-26T08:27:42.002Z,62.67
2023-01-26T08:30:09.384Z,68.30
2023-01-26T08:32:36.139Z,71.80
2023-01-26T08:35:02.756Z,82.63
2023-01-26T08:37:29.451Z,75.10
2023-01-26T08:39:55.985Z,73.40
2023-01-26T08:42:22.925Z,77.57
2023-01-26T08:44:49.514Z,74.77
2023-01-26T08:47:15.951Z,71.30
2023-01-26T08:49:42.469Z,73.40
2023-01-26T08:52:09.157Z,70.67
2023-01-26T08:54:35.798Z,69.53
2023-01-26T08:57:02.325Z,82.20
2023-01-26T08:59:28.846Z,61.77
2023-01-26T09:01:55.855Z,81.80
2023-01-26T09:04:22.530Z,63.57
2023-01-26T09:06:49.041Z,67.63
2023-01-26T09:09:15.802Z,69.27
2023-01-26T09:11:42.337Z,65.73
2023-01-26T09:14:08.983Z,60.27
2023-01-26T09:16:35.595Z,68.30
2023-01-26T09:19:02.392Z,69.80
2023-01-26T09:21:29.151Z,59.60
2023-01-26T09:23:57.282Z,69.83
2023-01-26T09:26:24.173Z,67.13
2023-01-26T09:28:52.527Z,67.00
2023-01-26T09:31:19.316Z,63.87
2023-01-26T09:33:46.235Z,61.60
2023-01-26T09:36:13.161Z,58.07
2023-01-26T09:38:40.271Z,65.57
2023-01-26T09:41:27.993Z,65.47
2023-01-26T09:43:59.796Z,66.60
2023-01-26T09:46:40.826Z,62.17
2023-01-26T09:49:30.889Z,65.60
2023-01-26T09:52:06.521Z,64.63
2023-01-26T09:54:33.012Z,79.33
2023-01-26T09:57:12.279Z,68.67
2023-01-26T09:59:59.379Z,72.87
2023-01-26T10:02:35.103Z,72.63
2023-01-26T10:05:07.344Z,85.03
2023-01-26T10:07:33.893Z,72.50
2023-01-26T10:10:00.668Z,70.30
2023-01-26T10:12:35.603Z,65.20
2023-01-26T10:15:10.746Z,64.73
2023-01-26T10:17:40.474Z,72.93
2023-01-26T10:20:10.202Z,69.77
2023-01-26T10:22:49.070Z,76.00
2023-01-26T10:25:18.667Z,70.20
2023-01-26T10:27:45.989Z,64.70
2023-01-26T10:30:14.436Z,68.87
2023-01-26T10:32:42.920Z,60.37
2023-01-26T10:35:24.166Z,67.43
2023-01-26T10:37:54.554Z,60.67
2023-01-26T10:40:21.717Z,61.17
2023-01-26T10:42:57.465Z,58.67
2023-01-26T10:45:27.297Z,66.40
2023-01-26T10:48:16.226Z,65.40
2023-01-26T10:50:42.816Z,65.53
2023-01-26T10:53:16.529Z,61.30
2023-01-26T10:55:43.052Z,57.13
2023-01-26T10:58:43.999Z,59.90
2023-01-26T11:01:12.450Z,59.80
2023-01-26T11:03:39.563Z,63.23
2023-01-26T11:06:08.394Z,65.53
2023-01-26T11:08:36.731Z,74.30
2023-01-26T11:11:04.764Z,76.20
2023-01-26T11:13:31.299Z,86.03
2023-01-26T11:16:20.666Z,88.30
2023-01-26T11:18:56.214Z,74.77
2023-01-26T11:21:36.934Z,72.30
2023-01-26T11:24:13.758Z,65.23
2023-01-26T11:26:54.704Z,72.33
2023-01-26T11:29:34.251Z,65.13
2023-01-26T11:32:20.068Z,75.17
2023-01-26T11:34:53.761Z,70.37
2023-01-26T11:37:29.190Z,73.03
2023-01-26T11:39:58.710Z,76.37
2023-01-26T11:43:08.923Z,78.70
2023-01-26T11:45:51.321Z,74.37
2023-01-26T11:48:57.192Z,79.33
2023-01-26T11:51:30.607Z,74.50
2023-01-26T11:54:24.923Z,65.47
2023-01-26T11:57:10.398Z,70.27
2023-01-26T11:59:41.201Z,65.90
2023-01-26T12:02:30.887Z,60.67
2023-01-26T12:05:03.290Z,68.27
2023-01-26T12:07:51.415Z,62.30
2023-01-26T12:10:21.499Z,56.40
2023-01-26T12:12:51.628Z,63.87
2023-01-26T12:15:29.788Z,52.17
2023-01-26T12:18:12.584Z,52.23
2023-01-26T12:21:06.127Z,57.47
2023-01-26T12:23:48.718Z,50.83
2023-01-26T12:26:18.273Z,46.00
2023-01-26T12:29:09.497Z,48.80
2023-01-26T12:31:45.631Z,41.90
2023-01-26T12:34:13.184Z,39.33
2023-01-26T12:36:59.142Z,46.50
2023-01-26T12:39:39.685Z,43.40
2023-01-26T12:42:31.635Z,36.87
2023-01-26T12:45:01.818Z,41.17
2023-01-26T12:47:41.865Z,42.07
2023-01-26T12:50:13.690Z,38.03
2023-01-26T12:52:55.291Z,35.37
2023-01-26T12:55:23.754Z,44.20
2023-01-26T12:58:06.180Z,36.90
2023-01-26T13:00:34.871Z,34.57
2023-01-26T13:03:05.669Z,34.63
2023-01-26T13:05:36.053Z,41.00
2023-01-26T13:08:47.113Z,38.00
2023-01-26T13:11:42.765Z,39.90
2023-01-26T13:14:30.621Z,46.73
2023-01-26T13:16:58.561Z,48.57
2023-01-26T13:19:43.557Z,50.40
2023-01-26T13:22:40.913Z,47.97
2023-01-26T13:25:36.873Z,61.90
2023-01-26T13:28:12.892Z,52.63
2023-01-26T13:30:44.614Z,56.53
2023-01-26T13:33:21.896Z,66.10
2023-01-26T13:35:50.759Z,52.00
2023-01-26T13:38:40.222Z,50.57
2023-01-26T13:41:20.709Z,54.17
2023-01-26T13:43:53.307Z,52.87
2023-01-26T13:46:28.310Z,37.33
2023-01-26T13:48:55.883Z,39.00
2023-01-26T13:51:26.387Z,42.50
2023-01-26T13:54:12.527Z,34.03
2023-01-26T13:56:43.920Z,43.80
2023-01-26T13:59:12.531Z,40.63
2023-01-26T14:01:53.635Z,38.43
2023-01-26T14:04:24.351Z,38.60
2023-01-26T14:06:58.731Z,43.13
2023-01-26T14:09:30.483Z,36.90
2023-01-26T14:12:05.103Z,34.73
2023-01-26T14:14:37.032Z,32.40
2023-01-26T14:17:10.830Z,27.90
2023-01-26T14:19:40.553Z,38.60
2023-01-26T14:22:13.505Z,26.17
2023-01-26T14:24:41.354Z,34.83
2023-01-26T14:27:35.121Z,31.20
2023-01-26T14:30:02.661Z,34.57
2023-01-26T14:32:29.891Z,30.83
2023-01-26T14:35:00.684Z,28.47
2023-01-26T14:37:28.330Z,31.90
2023-01-26T14:40:20.338Z,29.17
2023-01-26T14:42:48.716Z,31.33
2023-01-26T14:45:15.401Z,28.43
2023-01-26T14:47:42.916Z,25.73
2023-01-26T14:50:22.324Z,33.47
2023-01-26T14:52:49.165Z,25.97
2023-01-26T14:55:28.083Z,29.17
2023-01-26T14:57:55.614Z,29.60
2023-01-26T15:00:31.359Z,33.60
2023-01-26T15:02:59.142Z,30.40
2023-01-26T15:05:36.831Z,24.37
2023-01-26T15:08:19.245Z,34.43
2023-01-26T15:11:16.032Z,31.43
2023-01-26T15:13:45.136Z,33.40
2023-01-26T15:16:18.192Z,29.20
2023-01-26T15:18:45.153Z,49.27
2023-01-26T15:21:14.530Z,45.63
2023-01-26T15:23:43.231Z,28.20
2023-01-26T15:26:28.616Z,59.20
2023-01-26T15:28:57.114Z,32.40
2023-01-26T15:31:28.476Z,41.73
2023-01-26T15:33:56.097Z,35.93
2023-01-26T15:36:25.651Z,36.90
2023-01-26T15:38:58.706Z,39.57
2023-01-26T15:41:25.474Z,44.27
2023-01-26T15:43:51.987Z,61.77
2023-01-26T15:46:18.541Z,61.73
2023-01-26T15:48:45.035Z,49.20
2023-01-26T15:51:14.958Z,48.73
2023-01-26T15:53:41.847Z,63.73
2023-01-26T15:56:13.397Z,64.20
2023-01-26T15:58:40.658Z,49.20
2023-01-26T16:01:09.969Z,41.87
2023-01-26T16:03:36.500Z,34.90
2023-01-26T16:06:03.248Z,74.50
2023-01-26T16:08:29.722Z,75.57
2023-01-26T16:10:56.874Z,41.77
2023-01-26T16:13:23.494Z,79.47
2023-01-26T16:15:52.307Z,37.20
2023-01-26T16:18:19.403Z,40.27
2023-01-26T16:20:47.745Z,54.63
2023-01-26T16:23:24.181Z,63.07
2023-01-26T16:25:51.336Z,52.93
2023-01-26T16:28:19.253Z,38.57
2023-01-26T16:30:47.145Z,44.53
2023-01-26T16:33:16.383Z,52.60
2023-01-26T16:35:43.702Z,33.30
2023-01-26T16:38:13.174Z,35.20
2023-01-26T16:40:40.733Z,45.03
2023-01-26T16:43:17.177Z,40.20
2023-01-26T16:45:43.784Z,55.47
2023-01-26T16:48:14.934Z,35.00
2023-01-26T16:50:42.897Z,38.47
2023-01-26T16:53:26.159Z,80.40
2023-01-26T16:55:52.926Z,42.00
2023-01-26T16:58:20.105Z,48.80
2023-01-26T17:00:47.530Z,84.47
2023-01-26T17:03:14.468Z,56.33
2023-01-26T17:05:41.274Z,69.17
2023-01-26T17:08:08.058Z,63.63
2023-01-26T17:10:34.675Z,48.13
2023-01-26T17:13:01.652Z,48.67
2023-01-26T17:15:29.246Z,67.17
2023-01-26T17:17:56.312Z,48.57
2023-01-26T17:20:23.182Z,70.17
2023-01-26T17:22:50.067Z,66.07
2023-01-26T17:25:18.130Z,70.87
2023-01-26T17:27:46.383Z,65.17
2023-01-26T17:30:13.258Z,58.60
2023-01-26T17:32:41.883Z,65.40
2023-01-26T17:35:08.710Z,182.20
2023-01-26T17:37:35.706Z,114.93
2023-01-26T17:40:02.190Z,97.50
2023-01-26T17:42:30.091Z,117.40
2023-01-26T17:44:57.841Z,66.07
2023-01-26T17:47:27.585Z,110.37
2023-01-26T17:49:54.043Z,99.97
2023-01-26T17:52:20.506Z,61.27
2023-01-26T17:54:49.113Z,69.33
2023-01-26T17:57:15.720Z,47.07
2023-01-26T17:59:42.266Z,61.10
2023-01-26T18:02:11.897Z,71.47
2023-01-26T18:04:38.379Z,82.00
2023-01-26T18:07:05.059Z,76.73
2023-01-26T18:09:32.025Z,58.53
2023-01-26T18:11:58.539Z,79.27
2023-01-26T18:14:25.035Z,80.43
2023-01-26T18:16:51.563Z,105.40
2023-01-26T18:19:18.917Z,62.97
2023-01-26T18:21:45.460Z,98.80
2023-01-26T18:24:12.034Z,108.53
2023-01-26T18:26:38.767Z,120.90
2023-01-26T18:29:06.133Z,71.73
2023-01-26T18:31:36.820Z,120.27
2023-01-26T18:34:04.109Z,80.97
2023-01-26T18:36:31.205Z,136.13
2023-01-26T18:39:00.236Z,127.53
2023-01-26T18:41:28.291Z,134.77
2023-01-26T18:43:55.415Z,108.83
2023-01-26T18:46:22.696Z,77.70
2023-01-26T18:48:49.251Z,113.27
2023-01-26T18:51:15.824Z,167.80
2023-01-26T18:53:42.394Z,128.47
2023-01-26T18:56:11.110Z,102.30
2023-01-26T18:58:39.027Z,108.53
2023-01-26T19:01:09.767Z,85.90
2023-01-26T19:03:37.364Z,143.97
2023-01-26T19:06:07.324Z,189.30
2023-01-26T19:08:37.343Z,96.47
2023-01-26T19:11:05.924Z,99.30
2023-01-26T19:13:32.487Z,116.60
2023-01-26T19:15:59.004Z,121.23
2023-01-26T19:18:25.735Z,105.10
2023-01-26T19:20:59.306Z,142.30
2023-01-26T19:23:26.354Z,127.47
2023-01-26T19:25:53.211Z,118.07
2023-01-26T19:28:20.037Z,163.00
2023-01-26T19:30:47.264Z,98.30
2023-01-26T19:33:27.927Z,93.77
2023-01-26T19:35:56.187Z,96.73
2023-01-26T19:38:23.544Z,101.43
2023-01-26T19:40:51.780Z,98.53
2023-01-26T19:43:19.161Z,112.63
2023-01-26T19:45:50.554Z,117.67
2023-01-26T19:48:17.121Z,104.67
2023-01-26T19:50:43.897Z,107.37
2023-01-26T19:53:10.937Z,88.00
2023-01-26T19:55:37.748Z,85.23
2023-01-26T19:58:04.320Z,110.20
2023-01-26T20:00:30.948Z,111.00
2023-01-26T20:02:57.516Z,108.90
2023-01-26T20:05:24.041Z,101.90
2023-01-26T20:07:50.720Z,99.40
2023-01-26T20:10:17.517Z,111.17
2023-01-26T20:12:44.482Z,111.73
2023-01-26T20:15:11.475Z,111.27
2023-01-26T20:17:38.227Z,157.20
2023-01-26T20:20:05.365Z,118.33
2023-01-26T20:22:34.228Z,100.27
2023-01-26T20:25:01.088Z,86.00
2023-01-26T20:27:29.243Z,89.90
2023-01-26T20:29:56.120Z,153.60
2023-01-26T20:32:22.795Z,122.00
2023-01-26T20:34:49.465Z,153.43
2023-01-26T20:37:16.247Z,145.57
2023-01-26T20:39:44.982Z,86.33
2023-01-26T20:42:16.505Z,123.50
2023-01-26T20:44:43.554Z,127.67
2023-01-26T20:47:10.182Z,114.23
2023-01-26T20:49:37.359Z,123.63
2023-01-26T20:52:08.367Z,128.07
2023-01-26T20:54:35.635Z,112.27
2023-01-26T20:57:02.658Z,126.20
2023-01-26T20:59:30.374Z,120.07
2023-01-26T21:01:57.219Z,129.93
2023-01-26T21:04:23.816Z,124.20
2023-01-26T21:06:50.533Z,132.57
2023-01-26T21:09:17.190Z,147.70
2023-01-26T21:11:43.733Z,133.27
2023-01-26T21:14:12.113Z,126.33
2023-01-26T21:16:38.659Z,136.53
2023-01-26T21:19:05.363Z,112.20
2023-01-26T21:21:32.077Z,115.87
2023-01-26T21:23:58.753Z,104.90
2023-01-26T21:26:27.655Z,110.90
2023-01-26T21:28:56.801Z,135.90
2023-01-26T21:31:25.430Z,104.77
2023-01-26T21:33:52.703Z,96.27
2023-01-26T21:36:24.340Z,117.30
2023-01-26T21:38:52.234Z,133.37
2023-01-26T21:41:39.866Z,114.10
2023-01-26T21:44:53.503Z,130.60
2023-01-26T21:47:20.080Z,115.63
2023-01-26T21:49:47.684Z,117.50
2023-01-26T21:52:32.828Z,103.50
2023-01-26T21:54:59.310Z,110.90
2023-01-26T21:57:44.635Z,133.13
2023-01-26T22:00:11.925Z,99.00
2023-01-26T22:02:38.802Z,109.20
2023-01-26T22:05:05.640Z,113.03
2023-01-26T22:07:32.191Z,106.30
2023-01-26T22:09:58.752Z,90.80
2023-01-26T22:12:25.266Z,103.70
2023-01-26T22:14:52.332Z,81.77
2023-01-26T22:17:18.805Z,101.97
2023-01-26T22:19:45.300Z,77.77
2023-01-26T22:22:12.555Z,86.57
2023-01-26T22:24:39.052Z,69.13
2023-01-26T22:27:08.147Z,65.80
2023-01-26T22:29:34.778Z,81.07
2023-01-26T22:32:02.582Z,68.60
2023-01-26T22:34:29.131Z,84.17
2023-01-26T22:36:55.609Z,74.07
2023-01-26T22:39:22.168Z,68.13
2023-01-26T22:41:48.718Z,76.60
2023-01-26T22:44:15.261Z,55.87
2023-01-26T22:46:41.753Z,52.70
2023-01-26T22:49:09.819Z,47.07
2023-01-26T22:51:37.537Z,51.97
2023-01-26T22:54:04.966Z,53.73
2023-01-26T22:56:31.591Z,55.13
2023-01-26T22:59:00.489Z,56.13
2023-01-26T23:01:32.138Z,42.67
2023-01-26T23:03:59.322Z,50.67
2023-01-26T23:06:27.299Z,36.97
2023-01-26T23:08:54.506Z,43.13
2023-01-26T23:11:26.901Z,38.40
2023-01-26T23:13:54.936Z,34.00
2023-01-26T23:16:23.550Z,37.13
2023-01-26T23:18:54.604Z,28.40
2023-01-26T23:21:21.208Z,37.50
2023-01-26T23:23:47.724Z,28.07
2023-01-26T23:26:14.253Z,25.70
2023-01-26T23:28:42.336Z,26.70
2023-01-26T23:31:10.015Z,25.97
2023-01-26T23:33:37.275Z,23.87
2023-01-26T23:36:04.867Z,23.17
2023-01-26T23:38:31.954Z,16.77
2023-01-26T23:41:00.413Z,32.43
2023-01-26T23:43:27.425Z,17.63
2023-01-26T23:45:56.273Z,22.47
2023-01-26T23:48:23.363Z,18.20
2023-01-26T23:51:10.108Z,21.13
2023-01-26T23:53:37.184Z,19.37
2023-01-26T23:56:07.382Z,22.03
2023-01-26T23:58:34.087Z,14.23
